sensor_id;sensor_type;location;lat;lon;timestamp;pressure;altitude;pressure_sealevel;temperature;humidity
20696;BME280;10507;52.754;13.040;2023-02-10T00:01:44;101695.59;;;0.60;86.77
20696;BME280;10507;52.754;13.040;2023-02-10T00:04:13;101715.78;;;0.67;86.98
20696;BME280;10507;52.754;13.040;2023-02-10T00:06:42;101715.00;;;0.74;86.47
20696;BME280;10507;52.754;13.040;2023-02-10T00:09:12;101711.47;;;0.75;86.29
20696;BME280;10507;52.754;13.040;2023-02-10T00:11:41;101736.09;;;0.83;86.82
20696;BME280;10507;52.754;13.040;2023-02-10T00:14:27;101703.63;;;0.80;85.84
20696;BME280;10507;52.754;13.040;2023-02-10T00:16:56;101671.22;;;0.79;86.28
20696;BME280;10507;52.754;13.040;2023-02-10T00:19:27;101641.34;;;0.68;86.04
20696;BME280;10507;52.754;13.040;2023-02-10T00:21:56;101643.03;;;0.60;86.78
20696;BME280;10507;52.754;13.040;2023-02-10T00:24:24;101634.19;;;0.46;86.68
20696;BME280;10507;52.754;13.040;2023-02-10T00:26:52;101640.25;;;0.34;87.66
20696;BME280;10507;52.754;13.040;2023-02-10T00:29:21;101662.06;;;0.28;87.84
20696;BME280;10507;52.754;13.040;2023-02-10T00:31:49;101648.78;;;0.13;87.89
20696;BME280;10507;52.754;13.040;2023-02-10T00:34:20;101674.13;;;0.08;88.64
20696;BME280;10507;52.754;13.040;2023-02-10T00:36:50;101712.59;;;0.03;88.60
20696;BME280;10507;52.754;13.040;2023-02-10T00:39:18;101733.44;;;-0.10;89.34
20696;BME280;10507;52.754;13.040;2023-02-10T00:41:46;101760.56;;;-0.11;89.26
20696;BME280;10507;52.754;13.040;2023-02-10T00:44:18;101787.63;;;-0.15;89.50
20696;BME280;10507;52.754;13.040;2023-02-10T00:46:46;101832.25;;;-0.15;89.84
20696;BME280;10507;52.754;13.040;2023-02-10T00:49:18;101839.19;;;-0.20;90.19
20696;BME280;10507;52.754;13.040;2023-02-10T00:51:46;101866.22;;;-0.26;90.80
20696;BME280;10507;52.754;13.040;2023-02-10T00:54:16;101841.63;;;-0.32;90.69
20696;BME280;10507;52.754;13.040;2023-02-10T00:56:44;101877.47;;;-0.36;91.63
20696;BME280;10507;52.754;13.040;2023-02-10T00:59:12;101906.31;;;-0.36;92.08
20696;BME280;10507;52.754;13.040;2023-02-10T01:01:42;101930.81;;;-0.35;91.69
20696;BME280;10507;52.754;13.040;2023-02-10T01:04:11;101968.38;;;-0.36;92.49
20696;BME280;10507;52.754;13.040;2023-02-10T01:06:39;102008.00;;;-0.21;92.60
20696;BME280;10507;52.754;13.040;2023-02-10T01:09:07;102042.28;;;-0.13;92.75
20696;BME280;10507;52.754;13.040;2023-02-10T01:11:38;102006.28;;;-0.19;93.13
20696;BME280;10507;52.754;13.040;2023-02-10T01:14:07;101991.28;;;-0.28;92.74
20696;BME280;10507;52.754;13.040;2023-02-10T01:16:35;101991.25;;;-0.29;92.29
20696;BME280;10507;52.754;13.040;2023-02-10T01:19:04;102006.97;;;-0.31;93.14
20696;BME280;10507;52.754;13.040;2023-02-10T01:21:32;102027.94;;;-0.32;93.65
20696;BME280;10507;52.754;13.040;2023-02-10T01:24:03;102025.19;;;-0.38;93.98
20696;BME280;10507;52.754;13.040;2023-02-10T01:26:32;102026.03;;;-0.43;93.79
20696;BME280;10507;52.754;13.040;2023-02-10T01:29:02;102018.88;;;-0.51;94.39
20696;BME280;10507;52.754;13.040;2023-02-10T01:31:30;102054.81;;;-0.46;94.56
20696;BME280;10507;52.754;13.040;2023-02-10T01:33:59;102073.13;;;-0.49;94.36
20696;BME280;10507;52.754;13.040;2023-02-10T01:36:28;102107.28;;;-0.46;94.64
20696;BME280;10507;52.754;13.040;2023-02-10T01:38:56;102093.28;;;-0.46;95.17
20696;BME280;10507;52.754;13.040;2023-02-10T01:41:24;102107.25;;;-0.49;95.04
20696;BME280;10507;52.754;13.040;2023-02-10T01:43:54;102115.13;;;-0.49;95.66
20696;BME280;10507;52.754;13.040;2023-02-10T01:46:25;102096.63;;;-0.55;95.32
20696;BME280;10507;52.754;13.040;2023-02-10T01:48:55;102140.44;;;-0.51;95.89
20696;BME280;10507;52.754;13.040;2023-02-10T01:51:33;102129.06;;;-0.50;95.50
20696;BME280;10507;52.754;13.040;2023-02-10T01:54:05;102113.25;;;-0.54;96.07
20696;BME280;10507;52.754;13.040;2023-02-10T01:56:36;102106.19;;;-0.57;95.44
20696;BME280;10507;52.754;13.040;2023-02-10T01:59:05;102126.25;;;-0.59;95.94
20696;BME280;10507;52.754;13.040;2023-02-10T02:01:34;102161.38;;;-0.54;96.65
20696;BME280;10507;52.754;13.040;2023-02-10T02:04:03;102156.06;;;-0.55;96.75
20696;BME280;10507;52.754;13.040;2023-02-10T02:06:31;102185.06;;;-0.48;96.93
20696;BME280;10507;52.754;13.040;2023-02-10T02:09:01;102190.38;;;-0.46;97.14
20696;BME280;10507;52.754;13.040;2023-02-10T02:11:36;102211.47;;;-0.40;97.37
20696;BME280;10507;52.754;13.040;2023-02-10T02:14:19;102205.31;;;-0.40;97.06
20696;BME280;10507;52.754;13.040;2023-02-10T02:17:01;102216.84;;;-0.34;96.94
20696;BME280;10507;52.754;13.040;2023-02-10T02:20:08;102209.06;;;-0.29;96.79
20696;BME280;10507;52.754;13.040;2023-02-10T02:23:10;102222.34;;;-0.22;97.23
20696;BME280;10507;52.754;13.040;2023-02-10T02:25:55;102258.41;;;-0.11;97.31
20696;BME280;10507;52.754;13.040;2023-02-10T02:28:35;102248.94;;;-0.03;96.57
20696;BME280;10507;52.754;13.040;2023-02-10T02:34:10;102241.38;;;0.12;95.90
20696;BME280;10507;52.754;13.040;2023-02-10T02:36:47;102234.44;;;0.16;96.62
20696;BME280;10507;52.754;13.040;2023-02-10T02:39:40;102241.50;;;0.18;96.49
20696;BME280;10507;52.754;13.040;2023-02-10T02:42:18;102249.50;;;0.26;96.57
20696;BME280;10507;52.754;13.040;2023-02-10T02:44:50;102232.94;;;0.30;96.35
20696;BME280;10507;52.754;13.040;2023-02-10T02:47:30;102236.53;;;0.35;96.31
20696;BME280;10507;52.754;13.040;2023-02-10T02:50:16;102236.63;;;0.41;96.41
20696;BME280;10507;52.754;13.040;2023-02-10T02:52:57;102235.88;;;0.47;96.46
20696;BME280;10507;52.754;13.040;2023-02-10T02:55:35;102219.19;;;0.47;96.25
20696;BME280;10507;52.754;13.040;2023-02-10T02:58:14;102199.00;;;0.44;96.14
20696;BME280;10507;52.754;13.040;2023-02-10T03:00:48;102243.00;;;0.56;95.99
20696;BME280;10507;52.754;13.040;2023-02-10T03:03:18;102217.56;;;0.52;96.23
20696;BME280;10507;52.754;13.040;2023-02-10T03:05:48;102220.09;;;0.47;96.80
20696;BME280;10507;52.754;13.040;2023-02-10T03:08:16;102235.06;;;0.53;96.81
20696;BME280;10507;52.754;13.040;2023-02-10T03:10:44;102228.06;;;0.52;96.18
20696;BME280;10507;52.754;13.040;2023-02-10T03:13:13;102248.34;;;0.60;96.13
20696;BME280;10507;52.754;13.040;2023-02-10T03:15:41;102275.59;;;0.67;96.55
20696;BME280;10507;52.754;13.040;2023-02-10T03:18:10;102272.19;;;0.71;96.92
20696;BME280;10507;52.754;13.040;2023-02-10T03:20:39;102250.22;;;0.69;96.35
20696;BME280;10507;52.754;13.040;2023-02-10T03:23:08;102244.97;;;0.68;96.40
20696;BME280;10507;52.754;13.040;2023-02-10T03:25:36;102274.88;;;0.74;96.69
20696;BME280;10507;52.754;13.040;2023-02-10T03:28:04;102258.03;;;0.63;96.53
20696;BME280;10507;52.754;13.040;2023-02-10T03:30:33;102287.00;;;0.66;97.34
20696;BME280;10507;52.754;13.040;2023-02-10T03:33:01;102289.59;;;0.65;97.37
20696;BME280;10507;52.754;13.040;2023-02-10T03:35:29;102314.22;;;0.71;97.56
20696;BME280;10507;52.754;13.040;2023-02-10T03:37:58;102348.56;;;0.80;97.51
20696;BME280;10507;52.754;13.040;2023-02-10T03:40:27;102319.63;;;0.79;97.58
20696;BME280;10507;52.754;13.040;2023-02-10T03:42:55;102340.69;;;0.80;97.99
20696;BME280;10507;52.754;13.040;2023-02-10T03:45:24;102324.81;;;0.76;98.24
20696;BME280;10507;52.754;13.040;2023-02-10T03:47:52;102358.28;;;0.83;98.52
20696;BME280;10507;52.754;13.040;2023-02-10T03:50:20;102348.63;;;0.83;98.40
20696;BME280;10507;52.754;13.040;2023-02-10T03:52:48;102341.50;;;0.78;98.32
20696;BME280;10507;52.754;13.040;2023-02-10T03:55:16;102342.38;;;0.77;98.36
20696;BME280;10507;52.754;13.040;2023-02-10T03:57:47;102351.19;;;0.79;98.36
20696;BME280;10507;52.754;13.040;2023-02-10T04:00:16;102365.25;;;0.82;98.57
20696;BME280;10507;52.754;13.040;2023-02-10T04:02:44;102368.78;;;0.85;98.75
20696;BME280;10507;52.754;13.040;2023-02-10T04:05:12;102370.59;;;0.87;98.43
20696;BME280;10507;52.754;13.040;2023-02-10T04:07:40;102363.56;;;0.86;98.72
20696;BME280;10507;52.754;13.040;2023-02-10T04:10:08;102365.31;;;0.86;98.19
20696;BME280;10507;52.754;13.040;2023-02-10T04:12:37;102359.06;;;0.79;98.72
20696;BME280;10507;52.754;13.040;2023-02-10T04:15:07;102385.38;;;0.80;99.17
20696;BME280;10507;52.754;13.040;2023-02-10T04:17:36;102365.88;;;0.69;99.68
20696;BME280;10507;52.754;13.040;2023-02-10T04:20:05;102343.78;;;0.56;99.80
20696;BME280;10507;52.754;13.040;2023-02-10T04:22:33;102376.94;;;0.50;100.00
20696;BME280;10507;52.754;13.040;2023-02-10T04:25:01;102408.47;;;0.50;100.00
20696;BME280;10507;52.754;13.040;2023-02-10T04:27:29;102419.75;;;0.46;100.00
20696;BME280;10507;52.754;13.040;2023-02-10T04:29:57;102425.84;;;0.43;100.00
20696;BME280;10507;52.754;13.040;2023-02-10T04:32:27;102425.75;;;0.38;100.00
20696;BME280;10507;52.754;13.040;2023-02-10T04:34:56;102444.06;;;0.35;100.00
20696;BME280;10507;52.754;13.040;2023-02-10T04:37:24;102442.22;;;0.30;100.00
20696;BME280;10507;52.754;13.040;2023-02-10T04:39:52;102457.78;;;0.22;100.00
20696;BME280;10507;52.754;13.040;2023-02-10T04:42:20;102448.00;;;0.15;100.00
20696;BME280;10507;52.754;13.040;2023-02-10T04:44:56;102463.63;;;0.09;100.00
20696;BME280;10507;52.754;13.040;2023-02-10T04:47:25;102474.06;;;0.06;100.00
20696;BME280;10507;52.754;13.040;2023-02-10T04:49:54;102486.22;;;0.01;100.00
20696;BME280;10507;52.754;13.040;2023-02-10T04:52:22;102491.31;;;-0.06;100.00
20696;BME280;10507;52.754;13.040;2023-02-10T04:54:50;102519.41;;;-0.02;100.00
20696;BME280;10507;52.754;13.040;2023-02-10T04:57:18;102524.56;;;-0.05;100.00
20696;BME280;10507;52.754;13.040;2023-02-10T04:59:47;102535.88;;;-0.09;100.00
20696;BME280;10507;52.754;13.040;2023-02-10T05:02:15;102568.44;;;-0.02;100.00
20696;BME280;10507;52.754;13.040;2023-02-10T05:04:43;102543.81;;;-0.06;100.00
20696;BME280;10507;52.754;13.040;2023-02-10T05:07:12;102560.44;;;-0.07;100.00
20696;BME280;10507;52.754;13.040;2023-02-10T05:09:40;102567.41;;;-0.07;100.00
20696;BME280;10507;52.754;13.040;2023-02-10T05:12:08;102570.94;;;-0.07;100.00
20696;BME280;10507;52.754;13.040;2023-02-10T05:14:37;102576.19;;;-0.07;100.00
20696;BME280;10507;52.754;13.040;2023-02-10T05:17:05;102575.31;;;-0.06;100.00
20696;BME280;10507;52.754;13.040;2023-02-10T05:19:33;102580.56;;;-0.06;100.00
20696;BME280;10507;52.754;13.040;2023-02-10T05:22:01;102577.88;;;-0.09;100.00
20696;BME280;10507;52.754;13.040;2023-02-10T05:24:31;102581.28;;;-0.11;100.00
20696;BME280;10507;52.754;13.040;2023-02-10T05:26:59;102590.09;;;-0.09;100.00
20696;BME280;10507;52.754;13.040;2023-02-10T05:29:27;102586.53;;;-0.11;100.00
20696;BME280;10507;52.754;13.040;2023-02-10T05:31:56;102597.03;;;-0.11;100.00
20696;BME280;10507;52.754;13.040;2023-02-10T05:34:24;102619.03;;;-0.08;100.00
20696;BME280;10507;52.754;13.040;2023-02-10T05:36:52;102600.59;;;-0.11;100.00
20696;BME280;10507;52.754;13.040;2023-02-10T05:39:21;102611.09;;;-0.11;100.00
20696;BME280;10507;52.754;13.040;2023-02-10T05:41:55;102606.75;;;-0.09;100.00
20696;BME280;10507;52.754;13.040;2023-02-10T05:44:26;102608.47;;;-0.11;100.00
20696;BME280;10507;52.754;13.040;2023-02-10T05:46:55;102615.47;;;-0.10;100.00
20696;BME280;10507;52.754;13.040;2023-02-10T05:49:23;102621.66;;;-0.08;100.00
20696;BME280;10507;52.754;13.040;2023-02-10T05:51:52;102618.97;;;-0.09;100.00
20696;BME280;10507;52.754;13.040;2023-02-10T05:54:20;102625.97;;;-0.10;100.00
20696;BME280;10507;52.754;13.040;2023-02-10T05:56:48;102620.72;;;-0.10;100.00
20696;BME280;10507;52.754;13.040;2023-02-10T05:59:18;102618.97;;;-0.11;100.00
20696;BME280;10507;52.754;13.040;2023-02-10T06:01:46;102624.22;;;-0.11;100.00
20696;BME280;10507;52.754;13.040;2023-02-10T06:04:14;102630.41;;;-0.09;100.00
20696;BME280;10507;52.754;13.040;2023-02-10T06:06:42;102632.97;;;-0.10;100.00
20696;BME280;10507;52.754;13.040;2023-02-10T06:09:10;102654.09;;;-0.06;100.00
20696;BME280;10507;52.754;13.040;2023-02-10T06:11:38;102652.34;;;-0.07;100.00
20696;BME280;10507;52.754;13.040;2023-02-10T06:14:06;102661.09;;;-0.05;100.00
20696;BME280;10507;52.754;13.040;2023-02-10T06:16:36;102669.03;;;-0.03;100.00
20696;BME280;10507;52.754;13.040;2023-02-10T06:19:04;102676.09;;;-0.01;100.00
20696;BME280;10507;52.754;13.040;2023-02-10T06:21:32;102685.03;;;0.06;100.00
20696;BME280;10507;52.754;13.040;2023-02-10T06:24:00;102698.38;;;0.14;100.00
20696;BME280;10507;52.754;13.040;2023-02-10T06:26:28;102698.50;;;0.20;100.00
20696;BME280;10507;52.754;13.040;2023-02-10T06:28:57;102674.09;;;0.23;100.00
20696;BME280;10507;52.754;13.040;2023-02-10T06:31:25;102685.63;;;0.29;100.00
20696;BME280;10507;52.754;13.040;2023-02-10T06:33:55;102675.25;;;0.34;100.00
20696;BME280;10507;52.754;13.040;2023-02-10T06:36:23;102661.19;;;0.33;100.00
20696;BME280;10507;52.754;13.040;2023-02-10T06:38:51;102652.44;;;0.33;100.00
20696;BME280;10507;52.754;13.040;2023-02-10T06:41:19;102654.28;;;0.37;100.00
20696;BME280;10507;52.754;13.040;2023-02-10T06:43:48;102654.34;;;0.40;100.00
20696;BME280;10507;52.754;13.040;2023-02-10T06:46:17;102657.06;;;0.43;100.00
20696;BME280;10507;52.754;13.040;2023-02-10T06:48:45;102659.81;;;0.49;100.00
20696;BME280;10507;52.754;13.040;2023-02-10T06:51:15;102642.34;;;0.50;100.00
20696;BME280;10507;52.754;13.040;2023-02-10T06:53:43;102648.53;;;0.53;100.00
20696;BME280;10507;52.754;13.040;2023-02-10T06:56:12;102632.81;;;0.55;100.00
20696;BME280;10507;52.754;13.040;2023-02-10T06:58:40;102651.41;;;0.64;100.00
20696;BME280;10507;52.754;13.040;2023-02-10T07:01:09;102636.53;;;0.63;100.00
20696;BME280;10507;52.754;13.040;2023-02-10T07:03:38;102647.09;;;0.66;100.00
20696;BME280;10507;52.754;13.040;2023-02-10T07:06:07;102644.63;;;0.74;100.00
20696;BME280;10507;52.754;13.040;2023-02-10T07:08:37;102656.13;;;0.77;100.00
20696;BME280;10507;52.754;13.040;2023-02-10T07:11:05;102668.53;;;0.85;100.00
20696;BME280;10507;52.754;13.040;2023-02-10T07:13:33;102646.66;;;0.86;100.00
20696;BME280;10507;52.754;13.040;2023-02-10T07:16:01;102632.59;;;0.85;100.00
20696;BME280;10507;52.754;13.040;2023-02-10T07:18:29;102644.19;;;0.93;100.00
20696;BME280;10507;52.754;13.040;2023-02-10T07:20:57;102636.25;;;0.90;100.00
20696;BME280;10507;52.754;13.040;2023-02-10T07:23:25;102628.41;;;0.93;100.00
20696;BME280;10507;52.754;13.040;2023-02-10T07:26:04;102630.22;;;0.96;100.00
20696;BME280;10507;52.754;13.040;2023-02-10T07:28:33;102644.44;;;1.04;100.00
20696;BME280;10507;52.754;13.040;2023-02-10T07:31:01;102640.97;;;1.07;100.00
20696;BME280;10507;52.754;13.040;2023-02-10T07:33:29;102647.22;;;1.10;100.00
20696;BME280;10507;52.754;13.040;2023-02-10T07:35:59;102660.56;;;1.19;100.00
20696;BME280;10507;52.754;13.040;2023-02-10T07:38:27;102650.06;;;1.22;100.00
20696;BME280;10507;52.754;13.040;2023-02-10T07:40:58;102659.03;;;1.31;100.00
20696;BME280;10507;52.754;13.040;2023-02-10T07:43:28;102660.97;;;1.41;100.00
20696;BME280;10507;52.754;13.040;2023-02-10T07:45:56;102641.75;;;1.45;100.00
20696;BME280;10507;52.754;13.040;2023-02-10T07:48:25;102639.13;;;1.45;100.00
20696;BME280;10507;52.754;13.040;2023-02-10T07:50:53;102644.69;;;1.60;100.00
20696;BME280;10507;52.754;13.040;2023-02-10T07:53:21;102647.66;;;1.77;100.00
20696;BME280;10507;52.754;13.040;2023-02-10T07:55:49;102627.53;;;1.81;100.00
20696;BME280;10507;52.754;13.040;2023-02-10T07:58:18;102625.19;;;1.98;100.00
20696;BME280;10507;52.754;13.040;2023-02-10T08:00:47;102576.88;;;1.96;100.00
20696;BME280;10507;52.754;13.040;2023-02-10T08:03:16;102590.25;;;2.10;100.00
20696;BME280;10507;52.754;13.040;2023-02-10T08:05:44;102574.38;;;2.05;100.00
20696;BME280;10507;52.754;13.040;2023-02-10T08:08:15;102557.69;;;2.04;100.00
20696;BME280;10507;52.754;13.040;2023-02-10T08:10:43;102562.22;;;2.15;100.00
20696;BME280;10507;52.754;13.040;2023-02-10T08:13:12;102562.22;;;2.15;100.00
20696;BME280;10507;52.754;13.040;2023-02-10T08:15:40;102584.41;;;2.27;100.00
20696;BME280;10507;52.754;13.040;2023-02-10T08:18:10;102595.03;;;2.35;100.00
20696;BME280;10507;52.754;13.040;2023-02-10T08:20:38;102559.97;;;2.38;100.00
20696;BME280;10507;52.754;13.040;2023-02-10T08:23:13;102568.81;;;2.43;100.00
20696;BME280;10507;52.754;13.040;2023-02-10T08:25:42;102555.69;;;2.47;100.00
20696;BME280;10507;52.754;13.040;2023-02-10T08:28:10;102567.34;;;2.63;100.00
20696;BME280;10507;52.754;13.040;2023-02-10T08:30:39;102544.41;;;2.58;100.00
20696;BME280;10507;52.754;13.040;2023-02-10T08:33:07;102523.31;;;2.58;100.00
20696;BME280;10507;52.754;13.040;2023-02-10T08:35:37;102516.28;;;2.57;100.00
20696;BME280;10507;52.754;13.040;2023-02-10T08:38:06;102528.59;;;2.58;100.00
20696;BME280;10507;52.754;13.040;2023-02-10T08:40:36;102524.31;;;2.66;100.00
20696;BME280;10507;52.754;13.040;2023-02-10T08:43:04;102526.97;;;2.67;100.00
20696;BME280;10507;52.754;13.040;2023-02-10T08:45:32;102545.53;;;2.75;100.00
20696;BME280;10507;52.754;13.040;2023-02-10T08:48:00;102548.22;;;2.78;100.00
20696;BME280;10507;52.754;13.040;2023-02-10T08:50:29;102555.31;;;2.84;100.00
20696;BME280;10507;52.754;13.040;2023-02-10T08:52:58;102528.97;;;2.85;100.00
20696;BME280;10507;52.754;13.040;2023-02-10T08:55:26;102538.69;;;2.89;100.00
20696;BME280;10507;52.754;13.040;2023-02-10T08:57:54;102550.13;;;2.90;100.00
20696;BME280;10507;52.754;13.040;2023-02-10T09:00:23;102559.81;;;2.92;100.00
20696;BME280;10507;52.754;13.040;2023-02-10T09:02:52;102595.13;;;3.04;100.00
20696;BME280;10507;52.754;13.040;2023-02-10T09:05:20;102628.72;;;3.17;100.00
20696;BME280;10507;52.754;13.040;2023-02-10T09:07:48;102568.94;;;3.19;100.00
20696;BME280;10507;52.754;13.040;2023-02-10T09:10:18;102572.47;;;3.21;100.00
20696;BME280;10507;52.754;13.040;2023-02-10T09:12:46;102631.66;;;3.42;100.00
20696;BME280;10507;52.754;13.040;2023-02-10T09:15:14;102559.50;;;3.41;100.00
20696;BME280;10507;52.754;13.040;2023-02-10T09:17:42;102533.91;;;3.36;100.00
20696;BME280;10507;52.754;13.040;2023-02-10T09:20:11;102529.44;;;3.28;100.00
20696;BME280;10507;52.754;13.040;2023-02-10T09:22:39;102576.16;;;3.36;100.00
20696;BME280;10507;52.754;13.040;2023-02-10T09:25:08;102610.63;;;3.48;100.00
20696;BME280;10507;52.754;13.040;2023-02-10T09:27:37;102572.78;;;3.49;100.00
20696;BME280;10507;52.754;13.040;2023-02-10T09:30:06;102607.13;;;3.50;100.00
20696;BME280;10507;52.754;13.040;2023-02-10T09:32:34;102581.56;;;3.48;100.00
20696;BME280;10507;52.754;13.040;2023-02-10T09:35:02;102619.53;;;3.59;100.00
20696;BME280;10507;52.754;13.040;2023-02-10T09:37:30;102605.53;;;3.66;100.00
20696;BME280;10507;52.754;13.040;2023-02-10T09:39:58;102616.22;;;3.77;100.00
20696;BME280;10507;52.754;13.040;2023-02-10T09:42:31;102630.34;;;3.85;100.00
20696;BME280;10507;52.754;13.040;2023-02-10T09:45:15;102610.22;;;3.98;100.00
20696;BME280;10507;52.754;13.040;2023-02-10T09:47:48;102597.91;;;4.00;100.00
20696;BME280;10507;52.754;13.040;2023-02-10T09:50:45;102575.09;;;4.11;100.00
20696;BME280;10507;52.754;13.040;2023-02-10T09:53:17;102613.06;;;4.23;100.00
20696;BME280;10507;52.754;13.040;2023-02-10T09:55:49;102600.81;;;4.32;100.00
20696;BME280;10507;52.754;13.040;2023-02-10T09:58:22;102609.78;;;4.51;100.00
20696;BME280;10507;52.754;13.040;2023-02-10T10:00:57;102603.75;;;4.77;99.72
20696;BME280;10507;52.754;13.040;2023-02-10T10:03:28;102508.47;;;4.77;98.97
20696;BME280;10507;52.754;13.040;2023-02-10T10:06:07;102505.91;;;4.94;98.39
20696;BME280;10507;52.754;13.040;2023-02-10T10:08:45;102431.78;;;4.89;97.76
20696;BME280;10507;52.754;13.040;2023-02-10T10:11:23;102433.56;;;5.01;97.22
20696;BME280;10507;52.754;13.040;2023-02-10T10:13:53;102428.28;;;5.04;97.52
20696;BME280;10507;52.754;13.040;2023-02-10T10:16:40;102382.41;;;5.08;96.42
20696;BME280;10507;52.754;13.040;2023-02-10T10:19:17;102394.75;;;5.12;96.44
20696;BME280;10507;52.754;13.040;2023-02-10T10:21:51;102314.44;;;5.06;95.95
20696;BME280;10507;52.754;13.040;2023-02-10T10:24:42;102327.69;;;5.09;95.71
20696;BME280;10507;52.754;13.040;2023-02-10T10:27:23;102334.75;;;5.14;95.65
20696;BME280;10507;52.754;13.040;2023-02-10T10:29:54;102328.56;;;5.11;95.93
20696;BME280;10507;52.754;13.040;2023-02-10T10:32:35;102329.44;;;5.13;96.06
20696;BME280;10507;52.754;13.040;2023-02-10T10:35:12;102367.41;;;5.15;96.56
20696;BME280;10507;52.754;13.040;2023-02-10T10:37:42;102343.56;;;5.15;96.47
20696;BME280;10507;52.754;13.040;2023-02-10T10:40:15;102380.63;;;5.24;96.11
20696;BME280;10507;52.754;13.040;2023-02-10T10:42:46;102302.09;;;5.08;95.93
20696;BME280;10507;52.754;13.040;2023-02-10T10:45:19;102400.94;;;5.28;96.20
20696;BME280;10507;52.754;13.040;2023-02-10T10:47:53;102408.00;;;5.37;96.09
20696;BME280;10507;52.754;13.040;2023-02-10T10:50:23;102407.13;;;5.44;96.22
20696;BME280;10507;52.754;13.040;2023-02-10T10:52:53;102357.69;;;5.41;95.71
20696;BME280;10507;52.754;13.040;2023-02-10T10:55:24;102326.78;;;5.40;95.71
20696;BME280;10507;52.754;13.040;2023-02-10T10:57:55;102344.41;;;5.51;95.36
20696;BME280;10507;52.754;13.040;2023-02-10T11:00:25;102399.16;;;5.62;95.59
20696;BME280;10507;52.754;13.040;2023-02-10T11:02:59;102408.00;;;5.72;95.84
20696;BME280;10507;52.754;13.040;2023-02-10T11:05:30;102301.09;;;5.62;94.96
20696;BME280;10507;52.754;13.040;2023-02-10T11:07:59;102343.50;;;5.69;95.22
20696;BME280;10507;52.754;13.040;2023-02-10T11:10:35;102319.63;;;5.75;94.62
20696;BME280;10507;52.754;13.040;2023-02-10T11:13:05;102286.06;;;5.75;94.45
20696;BME280;10507;52.754;13.040;2023-02-10T11:15:38;102307.22;;;5.84;94.31
20696;BME280;10507;52.754;13.040;2023-02-10T11:18:16;102254.25;;;5.75;94.39
20696;BME280;10507;52.754;13.040;2023-02-10T11:20:53;102246.34;;;5.68;94.34
20696;BME280;10507;52.754;13.040;2023-02-10T11:23:22;102222.50;;;5.66;94.14
20696;BME280;10507;52.754;13.040;2023-02-10T11:26:02;102294.88;;;5.77;94.45
20696;BME280;10507;52.754;13.040;2023-02-10T11:28:31;102254.25;;;5.74;94.14
20696;BME280;10507;52.754;13.040;2023-02-10T11:31:04;102281.63;;;5.80;93.81
20696;BME280;10507;52.754;13.040;2023-02-10T11:33:34;102323.13;;;5.97;94.17
20696;BME280;10507;52.754;13.040;2023-02-10T11:36:05;102285.97;;;6.03;93.61
20696;BME280;10507;52.754;13.040;2023-02-10T11:38:35;102294.81;;;6.07;93.86
20696;BME280;10507;52.754;13.040;2023-02-10T11:41:05;102195.88;;;5.97;93.11
20696;BME280;10507;52.754;13.040;2023-02-10T11:43:39;102224.16;;;5.98;93.18
20696;BME280;10507;52.754;13.040;2023-02-10T11:46:17;102209.09;;;6.00;93.39
20696;BME280;10507;52.754;13.040;2023-02-10T11:48:54;102236.53;;;5.99;93.23
20696;BME280;10507;52.754;13.040;2023-02-10T11:51:22;102179.94;;;5.94;92.96
20696;BME280;10507;52.754;13.040;2023-02-10T11:53:51;102257.69;;;6.08;92.85
20696;BME280;10507;52.754;13.040;2023-02-10T11:56:23;102273.53;;;6.16;93.22
20696;BME280;10507;52.754;13.040;2023-02-10T11:59:11;102333.47;;;6.49;93.04
20696;BME280;10507;52.754;13.040;2023-02-10T12:01:55;102221.16;;;6.49;92.27
20696;BME280;10507;52.754;13.040;2023-02-10T12:04:39;102176.06;;;6.47;91.81
20696;BME280;10507;52.754;13.040;2023-02-10T12:07:22;102086.91;;;6.31;91.50
20696;BME280;10507;52.754;13.040;2023-02-10T12:09:56;102112.59;;;6.26;91.53
20696;BME280;10507;52.754;13.040;2023-02-10T12:12:34;102089.66;;;6.21;91.65
20696;BME280;10507;52.754;13.040;2023-02-10T12:15:12;102137.41;;;6.15;92.11
20696;BME280;10507;52.754;13.040;2023-02-10T12:17:50;102178.91;;;6.21;92.62
20696;BME280;10507;52.754;13.040;2023-02-10T12:20:38;102216.00;;;6.30;91.99
20696;BME280;10507;52.754;13.040;2023-02-10T12:23:31;102177.97;;;6.30;92.32
20696;BME280;10507;52.754;13.040;2023-02-10T12:26:08;102223.78;;;6.52;92.52
20696;BME280;10507;52.754;13.040;2023-02-10T12:28:49;102251.97;;;6.66;91.61
20696;BME280;10507;52.754;13.040;2023-02-10T12:31:30;102237.69;;;6.84;91.54
20696;BME280;10507;52.754;13.040;2023-02-10T12:34:29;102218.13;;;6.93;90.83
20696;BME280;10507;52.754;13.040;2023-02-10T12:37:14;102114.69;;;6.81;90.79
20696;BME280;10507;52.754;13.040;2023-02-10T12:39:51;102123.53;;;6.81;90.16
20696;BME280;10507;52.754;13.040;2023-02-10T12:42:35;102069.72;;;6.69;90.54
20696;BME280;10507;52.754;13.040;2023-02-10T12:45:15;102060.09;;;6.60;90.29
20696;BME280;10507;52.754;13.040;2023-02-10T12:47:50;102126.31;;;6.71;91.17
20696;BME280;10507;52.754;13.040;2023-02-10T12:50:39;102160.75;;;6.80;91.04
20696;BME280;10507;52.754;13.040;2023-02-10T12:53:17;102120.94;;;6.78;90.75
20696;BME280;10507;52.754;13.040;2023-02-10T12:55:51;102151.81;;;6.87;91.10
20696;BME280;10507;52.754;13.040;2023-02-10T12:58:23;102072.28;;;6.78;90.28
20696;BME280;10507;52.754;13.040;2023-02-10T13:01:00;102122.59;;;6.87;90.37
20696;BME280;10507;52.754;13.040;2023-02-10T13:03:33;102109.28;;;6.90;90.19
20696;BME280;10507;52.754;13.040;2023-02-10T13:06:18;102107.53;;;6.89;91.21
20696;BME280;10507;52.754;13.040;2023-02-10T13:08:53;102058.19;;;6.73;90.97